Jundah Airport


Codes: YJDA/JUN
Name: Jundah Airport
City:
Country: Australia
Elevation: 145 ft.

Photos at Jundah Airport


   Photos courtesy of SpottingLog. You can add your own sightings and photos by signing up for a free trial today.



No photos found.

Weather at Jundah Airport


Time (UTC)DescriptionTempratureWindCloud coverageVisibilityPressureHumidity
18-Apr-2024 00:00Broken Clouds25°C2 mph, NE70%10000m1017hPa56%
18-Apr-2024 03:00Scattered Clouds29°C2 mph, S30%10000m1016hPa44%
18-Apr-2024 06:00Scattered Clouds31°C13 mph, S43%10000m1013hPa28%
18-Apr-2024 09:00Broken Clouds29°C18 mph, S59%10000m1015hPa30%
18-Apr-2024 12:00Scattered Clouds26°C20 mph, S30%10000m1016hPa31%
18-Apr-2024 15:00Broken Clouds24°C18 mph, S64%10000m1016hPa30%
18-Apr-2024 18:00Scattered Clouds21°C16 mph, S49%10000m1016hPa34%
18-Apr-2024 21:00Few Clouds19°C13 mph, SE24%10000m1017hPa35%
19-Apr-2024 00:00Few Clouds24°C18 mph, SE12%10000m1018hPa27%
19-Apr-2024 03:00Clear Sky27°C13 mph, S0%10000m1016hPa23%
19-Apr-2024 06:00Clear Sky28°C16 mph, S0%10000m1015hPa19%
19-Apr-2024 09:00Clear Sky24°C13 mph, S0%10000m1017hPa21%
19-Apr-2024 12:00Clear Sky21°C16 mph, S0%10000m1018hPa25%
19-Apr-2024 15:00Clear Sky19°C18 mph, S0%10000m1018hPa31%
19-Apr-2024 18:00Clear Sky17°C16 mph, S0%10000m1018hPa42%
19-Apr-2024 21:00Clear Sky15°C11 mph, S0%10000m1019hPa53%
20-Apr-2024 00:00Clear Sky21°C16 mph, SE0%10000m1020hPa41%
20-Apr-2024 03:00Clear Sky24°C18 mph, S0%10000m1017hPa31%
20-Apr-2024 06:00Clear Sky24°C20 mph, S0%10000m1016hPa27%
20-Apr-2024 09:00Clear Sky21°C16 mph, SE0%10000m1018hPa31%
20-Apr-2024 12:00Clear Sky20°C16 mph, SE0%10000m1019hPa36%
20-Apr-2024 15:00Clear Sky18°C11 mph, SE0%10000m1018hPa43%
20-Apr-2024 18:00Clear Sky16°C11 mph, SE0%10000m1018hPa53%
20-Apr-2024 21:00Clear Sky15°C11 mph, SE0%10000m1019hPa57%
21-Apr-2024 00:00Clear Sky21°C18 mph, SE0%10000m1019hPa40%
21-Apr-2024 03:00Clear Sky25°C16 mph, SE0%10000m1017hPa26%
21-Apr-2024 06:00Clear Sky26°C16 mph, SE1%10000m1016hPa23%
21-Apr-2024 09:00Scattered Clouds24°C13 mph, S27%10000m1017hPa30%
21-Apr-2024 12:00Scattered Clouds23°C18 mph, SE43%10000m1018hPa35%
21-Apr-2024 15:00Few Clouds20°C22 mph, SE19%10000m1016hPa53%
21-Apr-2024 18:00Clear Sky19°C20 mph, SE10%10000m1015hPa64%
21-Apr-2024 21:00Clear Sky19°C18 mph, SE0%10000m1015hPa66%
22-Apr-2024 00:00Clear Sky24°C20 mph, SE0%10000m1016hPa48%
22-Apr-2024 03:00Clear Sky28°C18 mph, SE5%10000m1013hPa37%
22-Apr-2024 06:00Few Clouds29°C18 mph, SE20%10000m1011hPa34%
22-Apr-2024 09:00Scattered Clouds26°C11 mph, SE30%10000m1012hPa40%
22-Apr-2024 12:00Broken Clouds26°C13 mph, SE64%10000m1013hPa40%
22-Apr-2024 15:00Overcast Clouds24°C13 mph, SE100%10000m1012hPa53%
22-Apr-2024 18:00Overcast Clouds23°C13 mph, E100%10000m1012hPa64%
22-Apr-2024 21:00Overcast Clouds21°C7 mph, E100%10000m1013hPa74%